Nowshera Weather



Nowshera's Current Weather

Temprature 20o scattered clouds

scattered clouds

Rain: 0 %

Min Temprature20o
Max Temprature20o
Humidity28
Wind Speed5.1 m/h
Sun Rise06:48:12
Sun Set18:03:07
Current Time: 23-Feb-2019 15:46:53
Lat/Lon: 34.02, 71.98




Nowshera's Geo Location




Nowshera's Weather Forecast

Time Overall Temp Min Temp Max Temp Humidity Wind Speed Rain
23-Feb-2019 (Sat)
17:00:00 few clouds 18.990 17.299 18.990 44 1.76 m/h 0 %
20:00:00 clear sky 8.350 7.083 8.350 71 1.27 m/h 0 %
23:00:00 clear sky 3.830 2.990 3.830 76 0.72 m/h 0 %
24-Feb-2019 (Sun)
02:00:00 clear sky 1.510 1.085 1.510 73 1.41 m/h 0 %
05:00:00 clear sky -0.358 -0.358 -0.358 73 1.16 m/h 0 %
08:00:00 clear sky 2.378 2.378 2.378 75 1.16 m/h 0 %
11:00:00 clear sky 14.174 14.174 14.174 53 1.81 m/h 0 %
14:00:00 clear sky 18.406 18.406 18.406 44 1.77 m/h 0 %
17:00:00 clear sky 17.921 17.921 17.921 37 1.1 m/h 0 %
20:00:00 scattered clouds 7.318 7.318 7.318 74 1.06 m/h 0 %
23:00:00 scattered clouds 4.336 4.336 4.336 78 0.86 m/h 0 %
25-Feb-2019 (Mon)
02:00:00 scattered clouds 2.355 2.355 2.355 79 1.37 m/h 0 %
05:00:00 scattered clouds 1.102 1.102 1.102 82 1.16 m/h 0 %
08:00:00 broken clouds 4.095 4.095 4.095 81 1.07 m/h 0 %
11:00:00 light rain 11.222 11.222 11.222 63 2.31 m/h 9 %
14:00:00 light rain 10.373 10.373 10.373 89 1.82 m/h 231 %
17:00:00 moderate rain 8.987 8.987 8.987 96 2.71 m/h 575 %
20:00:00 moderate rain 7.448 7.448 7.448 97 1.76 m/h 827 %
23:00:00 moderate rain 6.767 6.767 6.767 97 1.91 m/h 349 %
26-Feb-2019 (Tue)
02:00:00 light rain 6.176 6.176 6.176 96 1.71 m/h 67 %
05:00:00 light rain 5.597 5.597 5.597 97 1.51 m/h 58 %
08:00:00 light rain 6.332 6.332 6.332 95 1.72 m/h 74 %
11:00:00 light rain 9.342 9.342 9.342 100 1.77 m/h 68 %
14:00:00 clear sky 13.571 13.571 13.571 88 2.71 m/h 0 %
17:00:00 clear sky 13.389 13.389 13.389 77 2.66 m/h 0 %
20:00:00 clear sky 6.711 6.711 6.711 89 2.87 m/h 0 %
23:00:00 clear sky 2.998 2.998 2.998 87 1.87 m/h 0 %
27-Feb-2019 (Wed)
02:00:00 clear sky 0.131 0.131 0.131 80 1.01 m/h 0 %
05:00:00 clear sky -1.681 -1.681 -1.681 80 1.35 m/h 0 %
08:00:00 clear sky 0.940 0.940 0.940 80 1.27 m/h 0 %
11:00:00 clear sky 10.820 10.820 10.820 81 1.81 m/h 0 %
14:00:00 clear sky 14.211 14.211 14.211 74 1.3 m/h 0 %
17:00:00 clear sky 13.873 13.873 13.873 63 2.31 m/h 0 %
20:00:00 few clouds 6.192 6.192 6.192 92 2.07 m/h 0 %
23:00:00 light rain 3.441 3.441 3.441 88 0.27 m/h 23 %
28-Feb-2019 (Thu)
02:00:00 light rain 4.291 4.291 4.291 86 1.36 m/h 3 %
05:00:00 light rain 2.288 2.288 2.288 88 0.96 m/h 3 %
08:00:00 overcast clouds 3.915 3.915 3.915 87 1.86 m/h 0 %
11:00:00 overcast clouds 10.747 10.747 10.747 75 1.96 m/h 0 %
14:00:00 overcast clouds 14.229 14.229 14.229 67 1.92 m/h 0 %

Famous Cities (60)